Time;durP1;ratioP1;P1;durP2;ratioP2;P2;SDS_P1;SDS_P2;PMS_P1;PMS_P2;Temp;Humidity;BMP_temperature;BMP_pressure;BME280_temperature;BME280_humidity;BME280_pressure;Samples;Min_cycle;Max_cycle;Signal;HPM_P1;HPM_P2
2021/06/29 00:01:09;;;;;;;13.10;10.10;;;19.90;1.00;;;;;;4992346;28;20262;-64
2021/06/29 00:03:36;;;;;;;13.07;10.00;;;19.90;1.00;;;;;;4992237;28;20203;-64
2021/06/29 00:06:02;;;;;;;11.20;10.10;;;19.90;6.10;;;;;;4991949;28;20282;-64
2021/06/29 00:08:29;;;;;;;13.07;11.23;;;19.90;99.90;;;;;;4992473;28;20223;-64
2021/06/29 00:10:56;;;;;;;12.20;10.77;;;19.90;99.90;;;;;;4992329;28;20212;-64
2021/06/29 00:13:24;;;;;;;15.33;11.23;;;19.80;99.90;;;;;;4992303;28;20266;-64
2021/06/29 00:15:50;;;;;;;12.70;11.33;;;19.80;99.90;;;;;;4992005;28;20716;-63
2021/06/29 00:18:17;;;;;;;14.07;10.83;;;19.80;99.90;;;;;;4992192;28;20348;-63
2021/06/29 00:20:44;;;;;;;13.00;11.30;;;19.80;99.90;;;;;;4991987;28;20216;-63
2021/06/29 00:23:10;;;;;;;12.53;11.33;;;19.80;99.90;;;;;;4992119;28;20680;-63
2021/06/29 00:25:37;;;;;;;13.73;11.20;;;19.80;99.90;;;;;;4992302;28;20227;-63
2021/06/29 00:28:04;;;;;;;12.27;11.10;;;19.80;99.90;;;;;;4992118;28;20731;-63
2021/06/29 00:30:33;;;;;;;12.80;11.53;;;19.70;99.90;;;;;;4992453;28;20204;-63
2021/06/29 00:32:59;;;;;;;13.90;11.67;;;19.70;99.90;;;;;;4992317;28;20207;-63
2021/06/29 00:35:26;;;;;;;13.40;11.70;;;19.60;99.90;;;;;;4992044;28;20908;-63
2021/06/29 00:37:52;;;;;;;12.90;11.63;;;19.60;99.90;;;;;;4992665;28;20255;-63
2021/06/29 00:40:19;;;;;;;13.97;12.27;;;19.60;99.90;;;;;;4992460;28;20208;-63
2021/06/29 00:42:46;;;;;;;14.57;12.57;;;19.50;99.90;;;;;;4992654;28;20215;-63
2021/06/29 00:45:14;;;;;;;14.77;12.40;;;19.50;99.90;;;;;;4995358;28;20227;-64
2021/06/29 00:47:43;;;;;;;15.83;12.80;;;19.40;1.00;;;;;;4995641;28;20665;-63
2021/06/29 00:50:10;;;;;;;14.80;13.40;;;19.30;1.00;;;;;;4995437;28;20630;-63
2021/06/29 00:52:40;;;;;;;14.30;12.90;;;19.40;99.90;;;;;;4995386;28;20668;-63
2021/06/29 00:55:07;;;;;;;15.63;13.17;;;19.30;99.90;;;;;;4995174;28;20224;-63
2021/06/29 00:57:35;;;;;;;14.23;12.83;;;19.30;99.90;;;;;;4995356;28;20215;-64
2021/06/29 01:00:04;;;;;;;14.93;13.50;;;19.30;1.00;;;;;;4995158;28;20579;-63
2021/06/29 01:02:31;;;;;;;15.30;13.60;;;19.30;1.00;;;;;;4995125;28;20215;-63
2021/06/29 01:04:59;;;;;;;16.00;14.10;;;19.30;12.20;;;;;;4994960;28;20246;-63
2021/06/29 01:07:26;;;;;;;16.80;15.00;;;19.30;99.90;;;;;;4995160;28;20258;-63
2021/06/29 01:09:53;;;;;;;17.93;14.27;;;19.30;99.90;;;;;;4994996;28;20282;-64
2021/06/29 01:12:19;;;;;;;15.67;14.07;;;19.30;1.00;;;;;;4995179;28;20207;-63
2021/06/29 01:14:46;;;;;;;18.07;14.83;;;19.30;1.00;;;;;;4994577;28;20703;-63
2021/06/29 01:17:12;;;;;;;18.30;14.40;;;19.30;1.00;;;;;;4995265;28;20652;-63
2021/06/29 01:19:44;;;;;;;16.07;14.40;;;19.30;1.00;;;;;;4995179;28;20218;-63
2021/06/29 01:22:12;;;;;;;15.43;13.93;;;19.30;1.00;;;;;;4995058;28;20203;-63
2021/06/29 01:24:41;;;;;;;15.97;14.30;;;19.30;1.00;;;;;;4994666;28;20211;-63
2021/06/29 01:32:35;;;;;;;16.20;14.43;;;19.30;1.00;;;;;;4993400;28;20537;-63
2021/06/29 01:35:07;;;;;;;17.57;15.23;;;19.30;99.90;;;;;;4994588;28;20770;-63
2021/06/29 01:37:35;;;;;;;17.13;15.43;;;19.30;99.90;;;;;;4994551;28;20274;-63
2021/06/29 01:40:05;;;;;;;16.47;14.87;;;19.30;1.00;;;;;;4994386;28;20676;-63
2021/06/29 01:42:32;;;;;;;16.43;14.73;;;19.20;1.00;;;;;;4994567;28;20262;-63
2021/06/29 01:44:59;;;;;;;18.53;16.37;;;19.30;1.00;;;;;;4994249;28;20270;-63
2021/06/29 01:47:29;;;;;;;16.40;14.67;;;19.30;1.00;;;;;;4994137;28;20544;-63
2021/06/29 01:49:56;;;;;;;17.40;15.47;;;19.30;99.90;;;;;;4994451;28;20247;-63
2021/06/29 01:52:22;;;;;;;20.03;17.80;;;19.20;99.90;;;;;;4994123;28;20267;-63
2021/06/29 01:54:51;;;;;;;25.37;17.53;;;19.20;1.00;;;;;;4993532;28;20207;-63
2021/06/29 01:57:18;;;;;;;18.93;15.93;;;19.20;76.50;;;;;;4994142;28;20227;-63
2021/06/29 01:59:47;;;;;;;17.43;15.63;;;19.10;1.00;;;;;;4994127;28;20207;-63
2021/06/29 02:02:14;;;;;;;16.00;14.50;;;19.10;1.00;;;;;;4993874;28;20664;-63
2021/06/29 02:04:41;;;;;;;15.47;13.87;;;19.20;1.00;;;;;;4993416;28;20212;-63
2021/06/29 02:07:07;;;;;;;16.53;14.83;;;19.20;99.90;;;;;;4993744;28;20688;-63
2021/06/29 02:09:34;;;;;;;15.80;14.07;;;19.20;17.70;;;;;;4994117;28;20250;-63
2021/06/29 02:12:02;;;;;;;16.33;13.57;;;19.20;1.00;;;;;;4994022;28;20207;-63
2021/06/29 02:14:29;;;;;;;16.93;15.23;;;19.20;1.00;;;;;;4993571;28;20695;-63
2021/06/29 02:16:55;;;;;;;16.90;14.43;;;19.10;63.40;;;;;;4993749;28;20227;-63
2021/06/29 02:19:22;;;;;;;16.70;14.93;;;19.10;99.90;;;;;;4993475;28;20212;-63
2021/06/29 02:21:49;;;;;;;18.50;15.20;;;19.10;1.00;;;;;;4993505;28;20621;-63
2021/06/29 02:24:16;;;;;;;15.57;14.00;;;19.00;99.90;;;;;;4993513;28;20275;-63
2021/06/29 02:26:42;;;;;;;16.73;13.47;;;19.00;99.90;;;;;;4993443;28;20282;-63
2021/06/29 02:29:10;;;;;;;15.70;13.33;;;19.10;99.90;;;;;;4993628;28;20211;-63
2021/06/29 02:31:37;;;;;;;16.57;14.67;;;19.20;1.00;;;;;;4993330;28;20215;-63
2021/06/29 02:34:04;;;;;;;18.10;16.00;;;19.10;1.00;;;;;;4993115;28;20262;-63
2021/06/29 02:36:30;;;;;;;16.87;15.20;;;19.10;1.00;;;;;;4993305;28;20235;-63
2021/06/29 02:38:57;;;;;;;19.63;15.63;;;19.10;1.00;;;;;;4993427;28;20262;-63
2021/06/29 02:41:23;;;;;;;18.37;16.47;;;19.10;1.00;;;;;;4993178;28;20212;-63
2021/06/29 02:43:50;;;;;;;21.77;17.63;;;19.00;1.00;;;;;;4993044;28;20257;-63
2021/06/29 02:46:18;;;;;;;19.83;16.43;;;19.00;99.90;;;;;;4993326;28;20278;-63
2021/06/29 02:48:45;;;;;;;18.27;16.37;;;18.90;99.90;;;;;;4992878;28;20211;-63
2021/06/29 02:51:12;;;;;;;20.50;16.47;;;19.00;99.90;;;;;;4993082;28;20676;-63
2021/06/29 02:53:39;;;;;;;21.50;17.47;;;18.90;99.90;;;;;;4992711;28;20680;-63
2021/06/29 02:56:06;;;;;;;19.53;17.43;;;18.90;99.90;;;;;;4993120;28;20227;-63
2021/06/29 02:58:53;;;;;;;22.77;17.50;;;18.80;99.90;;;;;;4992722;28;20207;-64
2021/06/29 03:01:21;;;;;;;22.27;16.27;;;18.80;99.90;;;;;;4993174;28;20215;-64
2021/06/29 03:03:47;;;;;;;20.50;16.37;;;18.80;99.90;;;;;;4992790;28;20250;-63
2021/06/29 03:06:14;;;;;;;19.43;16.00;;;18.70;99.90;;;;;;4992176;28;20220;-63
2021/06/29 03:08:40;;;;;;;18.90;16.03;;;18.70;99.90;;;;;;4992649;28;20215;-63
2021/06/29 03:11:07;;;;;;;17.83;15.93;;;18.60;1.00;;;;;;4992647;28;20621;-63
2021/06/29 03:13:34;;;;;;;17.60;15.23;;;18.50;9.50;;;;;;4992632;28;20207;-63
2021/06/29 03:16:00;;;;;;;17.63;15.30;;;18.50;99.90;;;;;;4992364;28;20779;-63
2021/06/29 03:18:28;;;;;;;17.33;14.83;;;18.50;99.90;;;;;;4992854;28;20287;-63
2021/06/29 03:20:55;;;;;;;18.23;15.33;;;18.40;1.00;;;;;;4992794;28;20586;-63
2021/06/29 03:23:21;;;;;;;18.17;15.30;;;18.40;1.00;;;;;;4992841;28;20207;-63
2021/06/29 03:25:49;;;;;;;20.97;15.50;;;18.30;20.50;;;;;;4992579;28;20642;-63
2021/06/29 03:28:16;;;;;;;19.10;15.80;;;18.30;55.60;;;;;;4992891;28;20346;-63
2021/06/29 03:30:43;;;;;;;20.10;16.57;;;18.30;99.90;;;;;;4992815;28;20211;-62
2021/06/29 03:33:10;;;;;;;22.23;17.63;;;18.30;99.90;;;;;;4992620;28;20208;-63
2021/06/29 03:35:38;;;;;;;21.87;19.27;;;18.20;1.00;;;;;;4992462;28;20238;-63
2021/06/29 03:38:04;;;;;;;22.93;20.43;;;18.10;99.90;;;;;;4992493;28;20228;-63
2021/06/29 03:40:31;;;;;;;25.47;22.03;;;18.10;99.90;;;;;;4992349;28;20207;-63
2021/06/29 03:42:58;;;;;;;29.73;22.53;;;18.10;99.90;;;;;;4992215;28;20208;-63
2021/06/29 03:45:24;;;;;;;27.37;22.20;;;18.00;1.00;;;;;;4992368;28;20223;-63
2021/06/29 03:47:51;;;;;;;27.87;22.50;;;18.00;1.00;;;;;;4992567;28;20667;-63
2021/06/29 03:50:18;;;;;;;26.83;21.33;;;18.10;1.00;;;;;;4992483;28;20602;-63
2021/06/29 03:52:46;;;;;;;26.87;21.93;;;18.10;1.00;;;;;;4992543;28;20246;-65
2021/06/29 03:55:12;;;;;;;25.13;22.43;;;18.00;1.00;;;;;;4992046;28;20779;-63
2021/06/29 03:57:39;;;;;;;30.30;21.87;;;18.10;1.00;;;;;;4992460;28;20235;-63
2021/06/29 04:00:09;;;;;;;25.63;22.03;;;18.10;3.40;;;;;;4992588;28;20219;-63
2021/06/29 04:02:36;;;;;;;29.40;21.13;;;18.10;95.70;;;;;;4990450;28;20203;-63
2021/06/29 04:05:03;;;;;;;27.60;22.03;;;18.10;99.90;;;;;;4978673;28;20289;-63
2021/06/29 04:07:30;;;;;;;24.77;21.87;;;18.10;99.90;;;;;;4992338;28;20223;-63
2021/06/29 04:09:58;;;;;;;28.83;22.17;;;18.10;99.90;;;;;;4992451;28;20208;-63
2021/06/29 04:12:26;;;;;;;25.23;21.37;;;18.10;99.90;;;;;;4992498;28;20664;-63
2021/06/29 04:14:53;;;;;;;25.77;20.80;;;18.20;99.90;;;;;;4991888;28;20583;-63
2021/06/29 04:17:20;;;;;;;24.43;19.83;;;18.10;99.90;;;;;;4993881;28;20227;-63
2021/06/29 04:19:46;;;;;;;25.17;20.50;;;18.10;99.90;;;;;;4996022;28;20270;-63
2021/06/29 04:22:13;;;;;;;27.40;19.63;;;18.20;90.20;;;;;;4995737;28;20250;-63
2021/06/29 04:24:39;;;;;;;24.83;19.00;;;18.10;79.90;;;;;;4995699;28;20289;-63
2021/06/29 04:27:08;;;;;;;23.67;19.33;;;18.10;99.20;;;;;;4995924;28;20203;-63
2021/06/29 04:29:35;;;;;;;30.50;20.13;;;18.20;99.90;;;;;;4995793;28;20234;-63
2021/06/29 04:32:01;;;;;;;22.57;20.10;;;18.20;99.90;;;;;;4995568;28;20816;-63
2021/06/29 04:34:28;;;;;;;24.07;18.27;;;18.30;47.80;;;;;;4995810;28;20243;-65
2021/06/29 04:36:54;;;;;;;20.87;17.63;;;18.40;1.00;;;;;;4995633;28;20356;-64
2021/06/29 04:39:21;;;;;;;20.63;18.53;;;18.40;1.00;;;;;;4995779;28;20204;-65
2021/06/29 04:41:47;;;;;;;21.80;18.67;;;18.50;1.00;;;;;;4997898;28;20626;-64
2021/06/29 04:44:15;;;;;;;21.40;18.33;;;18.60;1.00;;;;;;4999998;28;20259;-64
2021/06/29 04:46:42;;;;;;;20.80;17.07;;;18.70;99.90;;;;;;4998604;28;20231;-64
2021/06/29 04:49:09;;;;;;;21.50;15.43;;;18.90;66.90;;;;;;4996180;28;20208;-65
2021/06/29 04:51:35;;;;;;;16.40;14.10;;;19.00;99.90;;;;;;4995254;28;20211;-64
2021/06/29 04:54:02;;;;;;;17.07;14.47;;;19.20;1.00;;;;;;4995246;28;20211;-64
2021/06/29 04:56:29;;;;;;;18.07;13.90;;;19.30;22.80;;;;;;4995226;28;20232;-65
2021/06/29 04:58:57;;;;;;;19.17;14.17;;;19.40;32.40;;;;;;4995306;28;20262;-64
2021/06/29 05:01:26;;;;;;;18.47;14.73;;;19.50;99.90;;;;;;4995354;28;20211;-64
2021/06/29 05:03:52;;;;;;;15.20;13.23;;;19.60;78.80;;;;;;4994809;28;20262;-63
2021/06/29 05:06:19;;;;;;;16.67;13.60;;;19.60;1.00;;;;;;4994973;28;20781;-63
2021/06/29 05:08:46;;;;;;;14.73;12.73;;;19.60;99.90;;;;;;4994816;28;20676;-63
2021/06/29 05:11:13;;;;;;;15.17;12.73;;;19.60;99.90;;;;;;4995160;28;20208;-63
2021/06/29 05:13:40;;;;;;;14.60;13.10;;;19.70;99.90;;;;;;4994852;28;20207;-63
2021/06/29 05:16:06;;;;;;;15.67;12.00;;;19.80;87.80;;;;;;4994839;28;20278;-63
2021/06/29 05:18:34;;;;;;;12.63;11.33;;;19.90;1.00;;;;;;4994742;28;20208;-63
2021/06/29 05:21:01;;;;;;;13.80;10.37;;;20.00;76.70;;;;;;4994985;28;20552;-60
2021/06/29 05:23:28;;;;;;;13.50;11.00;;;20.20;1.00;;;;;;4994945;28;20207;-61
2021/06/29 05:25:55;;;;;;;13.00;10.47;;;20.10;1.00;;;;;;4994216;28;20227;-60
2021/06/29 05:28:22;;;;;;;13.43;10.37;;;20.10;1.00;;;;;;4993751;28;20227;-61
2021/06/29 05:30:49;;;;;;;12.73;10.17;;;20.10;1.00;;;;;;4993461;28;20215;-61
2021/06/29 05:33:16;;;;;;;12.03;9.33;;;20.10;1.00;;;;;;4994279;28;20285;-61
2021/06/29 05:35:44;;;;;;;10.20;7.97;;;20.10;1.00;;;;;;4994302;28;20223;-60
2021/06/29 05:38:11;;;;;;;11.67;8.53;;;20.10;1.00;;;;;;4993980;28;20266;-61
2021/06/29 05:40:38;;;;;;;12.80;8.77;;;20.00;40.30;;;;;;4994467;28;20639;-61
2021/06/29 05:43:05;;;;;;;10.17;7.60;;;20.00;99.90;;;;;;4994320;28;20258;-61
2021/06/29 05:45:31;;;;;;;9.03;7.63;;;20.10;99.90;;;;;;4993863;28;20223;-60
2021/06/29 05:47:58;;;;;;;18.17;8.20;;;20.10;58.60;;;;;;4994213;28;20699;-61
2021/06/29 05:50:26;;;;;;;15.33;7.87;;;20.20;20.70;;;;;;4994460;28;20210;-61
2021/06/29 05:52:53;;;;;;;34.40;10.30;;;20.30;99.90;;;;;;4994678;28;20302;-61
2021/06/29 05:55:21;;;;;;;19.17;8.00;;;20.40;99.90;;;;;;4994080;28;20231;-60
2021/06/29 05:57:47;;;;;;;13.47;7.97;;;20.50;99.90;;;;;;4994223;28;20254;-61
2021/06/29 06:00:17;;;;;;;11.53;7.70;;;20.50;1.00;;;;;;4994240;28;20208;-61
2021/06/29 06:02:44;;;;;;;11.90;7.47;;;20.60;1.00;;;;;;4994238;28;20203;-61
2021/06/29 06:05:11;;;;;;;14.27;8.90;;;20.70;18.20;;;;;;4993907;28;20235;-61
2021/06/29 06:07:39;;;;;;;11.10;8.57;;;20.50;1.00;;;;;;4994159;28;20318;-61
2021/06/29 06:10:08;;;;;;;10.70;8.77;;;20.40;27.30;;;;;;4993941;28;20204;-61
2021/06/29 06:12:35;;;;;;;13.93;9.47;;;20.30;99.90;;;;;;4993852;28;20212;-61
2021/06/29 06:15:02;;;;;;;10.10;8.93;;;20.20;99.90;;;;;;4993423;28;20240;-61
2021/06/29 06:17:30;;;;;;;14.60;10.47;;;20.20;1.00;;;;;;4994001;28;20207;-62
2021/06/29 06:19:57;;;;;;;14.73;9.90;;;20.10;1.00;;;;;;4993768;28;20644;-62
2021/06/29 06:22:24;;;;;;;16.53;10.53;;;20.10;99.90;;;;;;4993804;28;20203;-62
2021/06/29 06:24:50;;;;;;;14.30;10.27;;;20.10;99.90;;;;;;4993229;28;20270;-62
2021/06/29 06:27:18;;;;;;;12.23;9.97;;;20.20;99.90;;;;;;4993369;28;20227;-62
2021/06/29 06:29:45;;;;;;;11.60;9.33;;;20.20;36.80;;;;;;4994001;28;20208;-61
2021/06/29 06:32:12;;;;;;;10.73;9.57;;;20.10;99.90;;;;;;4993757;28;20270;-62
2021/06/29 06:34:39;;;;;;;13.13;9.67;;;20.20;99.90;;;;;;4993050;28;20243;-62
2021/06/29 06:37:05;;;;;;;11.13;8.80;;;20.30;25.00;;;;;;4993510;28;20741;-62
2021/06/29 06:39:32;;;;;;;10.43;8.93;;;20.50;1.00;;;;;;4993387;28;20207;-62
2021/06/29 06:41:59;;;;;;;11.03;9.77;;;20.60;1.00;;;;;;4993098;28;20266;-61
2021/06/29 06:44:27;;;;;;;9.93;8.93;;;20.60;1.00;;;;;;4993029;28;20734;-62
2021/06/29 06:46:53;;;;;;;10.23;9.20;;;20.50;1.00;;;;;;4993310;28;20236;-61
2021/06/29 06:49:20;;;;;;;11.57;8.40;;;20.40;1.00;;;;;;4993317;28;20211;-62
2021/06/29 06:51:47;;;;;;;9.10;8.20;;;20.40;99.90;;;;;;4993226;28;20207;-61
2021/06/29 06:54:13;;;;;;;11.00;7.77;;;20.30;99.90;;;;;;4992760;28;20207;-62
2021/06/29 06:56:40;;;;;;;10.10;7.60;;;20.30;99.90;;;;;;4992816;28;20236;-61
2021/06/29 06:59:07;;;;;;;10.37;7.70;;;20.40;1.00;;;;;;4993241;28;20199;-62
2021/06/29 07:01:37;;;;;;;11.83;8.37;;;20.40;99.90;;;;;;4993111;28;20266;-62
2021/06/29 07:04:05;;;;;;;11.77;9.00;;;20.50;99.90;;;;;;4993226;28;20222;-62
2021/06/29 07:06:31;;;;;;;17.10;10.23;;;20.60;75.70;;;;;;4992975;28;20576;-62
2021/06/29 07:08:58;;;;;;;13.50;12.10;;;20.80;99.90;;;;;;4992798;28;20231;-62
2021/06/29 07:11:44;;;;;;;14.00;12.50;;;20.80;1.00;;;;;;4993018;28;20683;-62
2021/06/29 07:14:11;;;;;;;16.50;13.67;;;20.90;99.90;;;;;;4992743;28;20282;-62
2021/06/29 07:16:39;;;;;;;23.80;13.97;;;20.80;99.90;;;;;;4992936;28;20282;-62
2021/06/29 07:19:06;;;;;;;16.80;15.03;;;20.90;99.90;;;;;;4992680;28;20277;-62
2021/06/29 07:21:33;;;;;;;16.40;13.40;;;20.90;99.90;;;;;;4992672;28;20204;-62
2021/06/29 07:24:00;;;;;;;16.43;13.97;;;21.00;99.90;;;;;;4992526;28;20636;-61
2021/06/29 07:26:27;;;;;;;15.67;13.97;;;21.00;99.90;;;;;;4992906;28;20278;-61
2021/06/29 07:28:54;;;;;;;15.23;13.73;;;20.90;99.90;;;;;;4992785;28;20646;-61
2021/06/29 07:31:21;;;;;;;15.50;13.77;;;20.90;99.90;;;;;;4992886;28;20238;-62
2021/06/29 07:33:49;;;;;;;14.73;12.30;;;21.00;99.90;;;;;;4992550;28;20632;-62
2021/06/29 07:36:17;;;;;;;14.33;12.83;;;21.10;99.90;;;;;;4993225;28;20282;-61
2021/06/29 07:38:45;;;;;;;15.57;12.07;;;20.90;99.90;;;;;;4993067;28;20207;-62
2021/06/29 07:41:12;;;;;;;13.70;11.73;;;20.80;99.90;;;;;;4992524;28;20619;-62
2021/06/29 07:43:39;;;;;;;13.63;10.73;;;20.70;99.90;;;;;;4992379;28;20239;-62
2021/06/29 07:46:05;;;;;;;14.50;10.73;;;20.50;99.90;;;;;;4992514;28;20231;-61
2021/06/29 07:48:32;;;;;;;13.43;11.60;;;20.40;99.90;;;;;;4992534;28;20228;-61
2021/06/29 07:51:00;;;;;;;14.20;10.77;;;20.50;99.90;;;;;;4992850;28;20203;-61
2021/06/29 07:53:27;;;;;;;14.10;9.70;;;20.60;99.90;;;;;;4996129;28;20302;-62
2021/06/29 07:55:54;;;;;;;12.30;8.77;;;20.80;99.90;;;;;;4996451;28;20227;-62
2021/06/29 07:58:20;;;;;;;8.73;6.83;;;20.90;99.90;;;;;;4996407;28;20687;-62
2021/06/29 08:00:47;;;;;;;10.43;7.67;;;20.80;99.90;;;;;;4996488;28;20563;-61
2021/06/29 08:03:14;;;;;;;7.87;6.87;;;20.70;99.90;;;;;;4996114;28;20238;-62
2021/06/29 08:05:40;;;;;;;8.87;6.50;;;20.80;99.90;;;;;;4996019;28;20286;-61
2021/06/29 08:08:09;;;;;;;7.87;5.83;;;20.90;99.90;;;;;;4996116;28;20223;-61
2021/06/29 08:10:36;;;;;;;9.13;5.30;;;20.90;99.90;;;;;;4996255;28;20587;-62
2021/06/29 08:13:03;;;;;;;7.40;5.50;;;21.00;99.90;;;;;;4996235;28;20262;-61
2021/06/29 08:15:30;;;;;;;6.63;5.60;;;21.20;99.90;;;;;;4995649;28;20224;-62
2021/06/29 08:17:57;;;;;;;9.20;5.87;;;21.40;89.30;;;;;;4996238;28;20637;-61
2021/06/29 08:20:25;;;;;;;10.17;5.57;;;21.30;39.90;;;;;;4996214;28;20216;-61
2021/06/29 08:22:57;;;;;;;5.97;5.17;;;21.40;11.20;;;;;;4995989;28;20211;-61
2021/06/29 08:25:25;;;;;;;6.03;4.80;;;21.60;40.50;;;;;;4995669;28;20263;-61
2021/06/29 08:27:52;;;;;;;6.63;4.80;;;21.70;1.00;;;;;;4995791;28;20711;-61
2021/06/29 08:30:19;;;;;;;7.43;4.97;;;21.80;1.00;;;;;;4995767;28;20287;-61
2021/06/29 08:32:46;;;;;;;6.20;4.97;;;22.00;1.00;;;;;;4995858;28;20214;-61
2021/06/29 08:35:13;;;;;;;5.93;4.93;;;22.20;1.00;;;;;;4995502;28;20235;-60
2021/06/29 08:37:42;;;;;;;5.13;4.60;;;22.30;1.00;;;;;;4995857;28;20212;-60
2021/06/29 08:40:10;;;;;;;6.27;5.30;;;22.60;1.00;;;;;;4996763;28;20208;-61
2021/06/29 08:42:39;;;;;;;7.60;5.63;;;22.80;1.00;;;;;;4998307;28;20215;-62
2021/06/29 08:45:09;;;;;;;6.63;5.33;;;22.90;1.00;;;;;;4996747;28;20244;-62
2021/06/29 08:47:36;;;;;;;6.17;5.27;;;23.10;1.00;;;;;;4996932;28;20271;-62
2021/06/29 08:50:04;;;;;;;7.20;5.80;;;23.20;1.00;;;;;;4998423;28;20208;-63
2021/06/29 08:52:32;;;;;;;7.57;5.40;;;23.10;1.00;;;;;;4998324;28;20212;-62
2021/06/29 08:54:59;;;;;;;10.63;6.20;;;23.10;1.00;;;;;;4995672;28;20227;-61
2021/06/29 08:57:26;;;;;;;8.90;7.17;;;22.80;1.00;;;;;;4995308;28;20274;-62
2021/06/29 08:59:53;;;;;;;8.50;7.57;;;22.50;1.00;;;;;;4996358;28;20200;-62
2021/06/29 09:02:20;;;;;;;12.20;9.73;;;22.40;1.00;;;;;;4995717;28;20291;-62
2021/06/29 09:04:49;;;;;;;11.60;9.37;;;22.20;1.00;;;;;;4994150;28;20208;-63
2021/06/29 09:07:21;;;;;;;13.27;9.30;;;22.20;1.00;;;;;;4995531;28;20695;-62
2021/06/29 09:09:49;;;;;;;13.10;9.63;;;22.00;1.00;;;;;;4995299;28;20278;-62
2021/06/29 09:12:40;;;;;;;11.30;9.57;;;22.10;1.00;;;;;;4996170;28;20208;-62
2021/06/29 09:15:30;;;;;;;14.90;10.70;;;22.20;1.00;;;;;;4995434;28;20237;-63
2021/06/29 09:18:08;;;;;;;14.10;10.80;;;22.30;1.00;;;;;;4995995;28;20212;-63
2021/06/29 09:20:41;;;;;;;17.03;13.53;;;22.30;1.00;;;;;;4995674;28;20269;-61
2021/06/29 09:23:10;;;;;;;18.50;14.50;;;22.20;1.00;;;;;;4995297;28;20258;-64
2021/06/29 09:25:37;;;;;;;19.43;13.87;;;22.00;1.00;;;;;;4994844;28;20228;-61
2021/06/29 09:28:04;;;;;;;20.73;15.33;;;21.90;1.00;;;;;;4995432;28;20231;-62
2021/06/29 09:30:40;;;;;;;22.37;15.60;;;21.70;1.00;;;;;;4995645;28;20215;-63
2021/06/29 09:33:08;;;;;;;16.83;13.90;;;21.90;1.00;;;;;;4995376;28;20551;-62
2021/06/29 09:35:36;;;;;;;18.83;14.73;;;22.20;1.00;;;;;;4994972;28;20235;-61
2021/06/29 09:38:03;;;;;;;21.83;15.13;;;22.40;1.00;;;;;;4994997;28;20215;-64
2021/06/29 09:40:31;;;;;;;18.77;14.20;;;22.60;1.00;;;;;;4994564;28;20667;-61
2021/06/29 09:43:13;;;;;;;21.50;16.07;;;22.80;1.00;;;;;;4994497;28;20207;-62
2021/06/29 09:45:44;;;;;;;22.07;17.87;;;22.80;1.00;;;;;;4994413;28;20254;-63
2021/06/29 09:48:12;;;;;;;21.20;17.07;;;22.90;1.00;;;;;;4994723;28;20274;-61
2021/06/29 09:50:42;;;;;;;21.17;18.47;;;23.00;1.00;;;;;;4994616;28;20208;-62
2021/06/29 09:53:17;;;;;;;23.33;20.43;;;23.10;1.00;;;;;;4994855;28;20200;-62
2021/06/29 09:55:46;;;;;;;20.93;17.77;;;23.20;1.00;;;;;;4993827;28;20238;-61
2021/06/29 09:58:15;;;;;;;26.70;21.23;;;23.00;1.00;;;;;;4994756;28;20295;-61
2021/06/29 10:00:49;;;;;;;22.93;20.43;;;23.00;1.00;;;;;;4994496;28;20262;-61
2021/06/29 10:03:18;;;;;;;24.50;21.17;;;23.30;1.00;;;;;;4994276;28;20218;-62
2021/06/29 10:05:45;;;;;;;25.17;21.03;;;23.60;1.00;;;;;;4993776;28;20715;-60
2021/06/29 10:08:11;;;;;;;23.47;20.97;;;23.80;1.00;;;;;;4994076;28;20219;-62
2021/06/29 10:10:38;;;;;;;24.17;20.83;;;23.90;1.00;;;;;;4994269;28;20265;-62
2021/06/29 10:13:15;;;;;;;25.43;21.57;;;24.10;99.90;;;;;;4994236;28;20679;-61
2021/06/29 10:15:43;;;;;;;24.57;21.00;;;23.90;99.90;;;;;;4993615;28;20227;-61
2021/06/29 10:18:11;;;;;;;28.27;21.73;;;23.90;1.00;;;;;;4993894;28;20568;-62
2021/06/29 10:20:49;;;;;;;25.50;20.70;;;23.90;99.90;;;;;;4993769;28;20208;-62
2021/06/29 10:23:17;;;;;;;22.70;20.23;;;23.90;99.90;;;;;;4994000;28;20215;-62
2021/06/29 10:25:44;;;;;;;25.63;20.57;;;23.90;99.90;;;;;;4993183;28;20232;-62
2021/06/29 10:28:13;;;;;;;21.50;19.13;;;23.90;99.90;;;;;;4993692;28;20234;-62
2021/06/29 10:30:40;;;;;;;23.87;19.80;;;23.80;99.90;;;;;;4993802;28;20286;-62
2021/06/29 10:33:07;;;;;;;22.27;19.33;;;23.90;99.90;;;;;;4993491;28;20207;-62
2021/06/29 10:35:35;;;;;;;25.93;19.97;;;24.00;99.90;;;;;;4993687;28;20235;-61
2021/06/29 10:38:02;;;;;;;28.33;22.43;;;24.10;99.90;;;;;;4993668;28;20690;-62
2021/06/29 10:40:29;;;;;;;24.10;19.93;;;24.20;99.90;;;;;;4993595;28;20204;-62
2021/06/29 10:42:58;;;;;;;24.57;20.93;;;24.20;99.90;;;;;;4993506;28;20258;-62
2021/06/29 10:45:24;;;;;;;28.50;21.63;;;24.20;99.90;;;;;;4993431;28;20594;-62
2021/06/29 10:47:51;;;;;;;26.37;23.07;;;23.80;99.90;;;;;;4993242;28;20635;-62
2021/06/29 10:50:18;;;;;;;24.57;20.70;;;23.80;99.90;;;;;;4993527;28;20228;-61
2021/06/29 10:52:46;;;;;;;25.57;20.80;;;23.60;99.90;;;;;;4993463;28;20214;-62
2021/06/29 10:55:26;;;;;;;22.90;20.37;;;23.60;99.90;;;;;;4992881;28;20387;-62
2021/06/29 10:57:55;;;;;;;22.97;20.13;;;23.90;99.90;;;;;;4993103;28;20273;-61
2021/06/29 11:00:27;;;;;;;23.23;20.57;;;24.20;99.90;;;;;;4992870;28;20734;-62
2021/06/29 11:03:03;;;;;;;21.93;19.53;;;24.50;99.90;;;;;;4993139;28;20211;-62
2021/06/29 11:05:32;;;;;;;23.77;18.00;;;24.50;99.90;;;;;;4992652;28;20231;-62
2021/06/29 11:08:13;;;;;;;22.50;18.30;;;24.90;99.90;;;;;;4992988;28;20641;-62
2021/06/29 11:10:44;;;;;;;21.50;18.67;;;25.00;99.90;;;;;;4992703;28;20651;-62
2021/06/29 11:13:12;;;;;;;20.40;17.60;;;25.00;99.90;;;;;;4993059;28;20614;-62
2021/06/29 11:15:52;;;;;;;21.83;18.83;;;24.80;99.90;;;;;;4992677;28;20223;-62
2021/06/29 11:18:21;;;;;;;20.23;18.03;;;24.70;99.90;;;;;;4992930;28;20211;-62
2021/06/29 11:20:49;;;;;;;22.90;19.13;;;24.80;99.90;;;;;;4992741;28;20267;-62
2021/06/29 11:23:20;;;;;;;20.53;17.93;;;24.90;99.90;;;;;;4992673;28;20584;-62
2021/06/29 11:25:52;;;;;;;21.37;17.27;;;24.80;99.90;;;;;;4992303;28;20314;-62
2021/06/29 11:28:24;;;;;;;22.43;19.47;;;24.90;99.90;;;;;;4992604;28;20210;-62
2021/06/29 11:31:07;;;;;;;21.50;18.10;;;24.90;99.90;;;;;;4992759;28;20231;-62
2021/06/29 11:33:54;;;;;;;20.50;17.93;;;24.90;99.90;;;;;;4992130;28;20211;-63
2021/06/29 11:36:52;;;;;;;18.77;16.77;;;25.00;99.90;;;;;;4979499;28;20568;-63
2021/06/29 11:39:26;;;;;;;22.23;19.67;;;25.10;99.90;;;;;;4975147;28;20211;-66
2021/06/29 11:41:55;;;;;;;22.97;20.47;;;24.50;99.90;;;;;;4984713;28;20213;-66
2021/06/29 11:44:39;;;;;;;24.23;19.73;;;24.30;99.90;;;;;;4972665;28;20212;-65
2021/06/29 11:47:10;;;;;;;23.53;20.47;;;24.70;99.90;;;;;;4969623;28;20235;-63
2021/06/29 11:49:41;;;;;;;25.43;20.90;;;24.40;99.90;;;;;;4968974;28;20278;-63
2021/06/29 11:52:19;;;;;;;27.33;21.50;;;24.10;99.90;;;;;;4969415;28;20582;-64
2021/06/29 11:54:52;;;;;;;25.10;19.27;;;23.80;99.90;;;;;;4969800;28;20223;-64
2021/06/29 11:57:21;;;;;;;22.97;18.93;;;23.60;99.90;;;;;;4969415;28;20216;-66
2021/06/29 11:59:49;;;;;;;19.37;16.70;;;23.60;99.90;;;;;;4969533;28;20220;-66
2021/06/29 12:02:19;;;;;;;20.67;16.13;;;23.70;99.90;;;;;;4969371;28;20216;-65
2021/06/29 12:04:56;;;;;;;21.80;16.70;;;23.70;99.90;;;;;;4969439;28;20619;-64
2021/06/29 12:07:32;;;;;;;20.97;15.70;;;23.90;99.90;;;;;;4969618;28;20215;-64
2021/06/29 12:10:00;;;;;;;22.30;18.20;;;23.90;99.90;;;;;;4969547;28;20231;-64
2021/06/29 12:12:28;;;;;;;24.93;18.43;;;23.80;99.90;;;;;;4969453;28;20208;-65
2021/06/29 12:14:59;;;;;;;23.77;19.47;;;23.70;99.90;;;;;;4969829;28;20209;-65
2021/06/29 12:17:26;;;;;;;23.80;18.87;;;23.70;99.90;;;;;;4971188;28;20208;-65
2021/06/29 12:20:01;;;;;;;22.97;19.07;;;23.80;99.90;;;;;;4969380;28;20209;-66
2021/06/29 12:22:30;;;;;;;24.23;17.10;;;24.00;99.90;;;;;;4969424;28;20283;-63
2021/06/29 12:24:57;;;;;;;21.03;15.93;;;24.10;99.90;;;;;;4968949;28;20787;-61
2021/06/29 12:27:26;;;;;;;19.90;15.57;;;24.20;99.90;;;;;;4969097;28;20224;-62
2021/06/29 12:29:53;;;;;;;19.90;15.13;;;24.40;99.90;;;;;;4968893;28;20232;-61
2021/06/29 12:32:23;;;;;;;22.70;15.13;;;24.40;99.90;;;;;;4973282;28;20938;-61
2021/06/29 12:34:50;;;;;;;21.83;15.60;;;24.40;99.90;;;;;;4988586;28;20216;-61
2021/06/29 12:37:18;;;;;;;18.30;15.13;;;24.20;99.90;;;;;;4988317;28;20212;-61
2021/06/29 12:39:45;;;;;;;21.47;17.13;;;24.00;99.90;;;;;;4992561;28;20299;-61
2021/06/29 12:42:14;;;;;;;19.17;14.97;;;23.90;99.90;;;;;;4992243;28;20207;-62
2021/06/29 12:44:42;;;;;;;18.50;14.23;;;24.20;99.90;;;;;;4992433;28;20211;-63